createdAt,value
2023-01-15T00:02:08.008Z,99.90001
2023-01-15T00:32:25.352Z,99.90001
2023-01-15T01:02:41.573Z,99.90001
2023-01-15T01:32:58.841Z,99.90001
2023-01-15T02:03:15.370Z,99.90001
2023-01-15T02:33:32.139Z,99.90001
2023-01-15T03:03:47.729Z,99.90001
2023-01-15T03:34:04.950Z,99.90001
2023-01-15T04:04:22.942Z,99.90001
2023-01-15T04:34:39.073Z,99.90001
2023-01-15T05:04:55.986Z,99.90001
2023-01-15T05:35:12.066Z,99.90001
2023-01-15T06:05:28.728Z,99.90001
2023-01-15T06:35:45.684Z,99.90001
2023-01-15T07:06:03.336Z,99.90001
2023-01-15T07:36:21.460Z,99.90001
2023-01-15T08:06:39.123Z,99.90001
2023-01-15T08:36:55.244Z,99.90001
2023-01-15T09:07:13.051Z,99.90001
2023-01-15T09:37:31.009Z,99.90001
2023-01-15T10:07:49.254Z,98.8
2023-01-15T10:38:08.811Z,94.8
2023-01-15T11:09:06.760Z,93.5
2023-01-15T11:38:49.501Z,90.4
2023-01-15T12:09:07.681Z,88.7
2023-01-15T12:39:25.873Z,84.5
2023-01-15T13:09:41.485Z,84.5
2023-01-15T13:39:59.781Z,81.3
2023-01-15T14:10:16.919Z,82
2023-01-15T14:40:34.638Z,82.9
2023-01-15T15:41:08.863Z,87
2023-01-15T16:11:25.448Z,89.3
2023-01-15T16:41:40.362Z,91.3
2023-01-15T17:11:55.982Z,93.1
2023-01-15T17:42:15.868Z,94.5
2023-01-15T18:12:33.842Z,96.3
2023-01-15T18:42:50.968Z,97.3
2023-01-15T19:43:27.701Z,95
2023-01-15T20:13:47.210Z,98.8
2023-01-15T20:44:03.661Z,99.90001
2023-01-15T21:14:21.811Z,99.90001
2023-01-15T21:44:38.627Z,99.90001
2023-01-15T22:14:56.603Z,99.90001
2023-01-15T22:45:13.497Z,99.90001
2023-01-15T23:15:32.448Z,99.40001
2023-01-15T23:45:51.025Z,99.8
